createdAt,value
2022-10-14T00:01:46.940Z,39.25
2022-10-14T00:04:13.632Z,39.78
2022-10-14T00:06:40.443Z,38.92
2022-10-14T00:09:09.526Z,39.60
2022-10-14T00:11:37.739Z,38.53
2022-10-14T00:14:10.419Z,40.38
2022-10-14T00:16:39.405Z,41.63
2022-10-14T00:19:07.026Z,41.60
2022-10-14T00:21:35.406Z,42.85
2022-10-14T00:24:02.028Z,42.88
2022-10-14T00:26:32.001Z,43.75
2022-10-14T00:28:59.983Z,44.33
2022-10-14T00:31:27.844Z,45.10
2022-10-14T00:33:54.804Z,47.88
2022-10-14T00:36:24.177Z,42.90
2022-10-14T00:38:52.248Z,44.55
2022-10-14T00:41:23.102Z,44.67
2022-10-14T00:44:03.657Z,48.00
2022-10-14T00:46:42.532Z,47.05
2022-10-14T00:49:13.643Z,44.70
2022-10-14T00:51:42.828Z,41.95
2022-10-14T00:54:11.429Z,43.30
2022-10-14T00:56:38.571Z,43.15
2022-10-14T00:59:06.747Z,46.92
2022-10-14T01:01:33.778Z,41.90
2022-10-14T01:04:00.400Z,43.55
2022-10-14T01:06:49.713Z,43.92
2022-10-14T01:09:19.536Z,43.95
2022-10-14T01:12:35.354Z,40.35
2022-10-14T01:15:22.626Z,42.42
2022-10-14T01:18:04.325Z,43.65
2022-10-14T01:21:08.061Z,42.50
2022-10-14T01:24:05.553Z,44.78
2022-10-14T01:27:07.584Z,43.33
2022-10-14T01:29:59.496Z,38.50
2022-10-14T01:32:32.593Z,45.53
2022-10-14T01:35:11.576Z,45.28
2022-10-14T01:37:46.137Z,44.28
2022-10-14T01:40:21.780Z,44.90
2022-10-14T01:42:49.336Z,45.50
2022-10-14T01:45:22.424Z,44.85
2022-10-14T01:47:51.310Z,44.78
2022-10-14T01:50:21.217Z,46.40
2022-10-14T01:52:53.292Z,46.95
2022-10-14T01:55:25.020Z,47.58
2022-10-14T01:57:55.281Z,45.47
2022-10-14T02:00:21.851Z,45.22
2022-10-14T02:02:48.958Z,44.53
2022-10-14T02:05:22.123Z,42.70
2022-10-14T02:07:54.854Z,40.65
2022-10-14T02:10:24.251Z,41.45
2022-10-14T02:13:20.980Z,38.50
2022-10-14T02:16:05.277Z,38.10
2022-10-14T02:18:58.089Z,39.53
2022-10-14T02:21:37.530Z,36.88
2022-10-14T02:24:18.672Z,35.58
2022-10-14T02:26:47.494Z,35.25
2022-10-14T02:29:14.504Z,36.53
2022-10-14T02:31:43.374Z,34.70
2022-10-14T02:34:12.716Z,37.07
2022-10-14T02:36:41.740Z,33.60
2022-10-14T02:39:11.725Z,34.60
2022-10-14T02:41:38.790Z,36.00
2022-10-14T02:44:06.490Z,34.80
2022-10-14T02:46:33.913Z,34.17
2022-10-14T02:49:00.569Z,34.42
2022-10-14T02:51:27.384Z,36.25
2022-10-14T02:53:54.057Z,36.67
2022-10-14T02:56:20.637Z,36.22
2022-10-14T02:58:47.315Z,35.08
2022-10-14T03:01:13.937Z,36.83
2022-10-14T03:03:40.569Z,35.35
2022-10-14T03:06:07.413Z,36.33
2022-10-14T03:08:34.143Z,32.78
2022-10-14T03:11:00.935Z,37.05
2022-10-14T03:13:27.659Z,32.55
2022-10-14T03:15:54.253Z,31.92
2022-10-14T03:18:21.653Z,31.23
2022-10-14T03:20:48.340Z,31.65
2022-10-14T03:23:14.945Z,30.10
2022-10-14T03:25:44.983Z,31.27
2022-10-14T03:28:12.481Z,28.67
2022-10-14T03:30:39.633Z,28.20
2022-10-14T03:33:06.284Z,26.90
2022-10-14T03:35:32.891Z,26.88
2022-10-14T03:38:02.336Z,26.20
2022-10-14T03:40:30.057Z,27.52
2022-10-14T03:43:01.138Z,25.05
2022-10-14T03:45:28.512Z,25.40
2022-10-14T03:47:55.966Z,24.65
2022-10-14T03:50:22.676Z,22.98
2022-10-14T03:52:54.623Z,23.48
2022-10-14T03:55:22.101Z,22.95
2022-10-14T03:57:48.791Z,23.55
2022-10-14T04:00:15.883Z,24.67
2022-10-14T04:02:42.835Z,20.90
2022-10-14T04:05:10.458Z,20.58
2022-10-14T04:07:37.333Z,20.30
2022-10-14T04:10:04.296Z,21.67
2022-10-14T04:12:30.985Z,20.00
2022-10-14T04:14:57.657Z,21.08
2022-10-14T04:17:25.275Z,22.33
2022-10-14T04:19:52.626Z,20.05
2022-10-14T04:22:20.212Z,22.10
2022-10-14T04:24:47.020Z,21.15
2022-10-14T04:27:13.736Z,20.95
2022-10-14T04:29:40.347Z,22.00
2022-10-14T04:32:07.045Z,21.73
2022-10-14T04:34:33.851Z,23.73
2022-10-14T04:37:00.522Z,22.20
2022-10-14T04:39:27.217Z,24.98
2022-10-14T04:41:53.877Z,24.85
2022-10-14T04:44:20.474Z,25.55
2022-10-14T04:46:47.144Z,26.98
2022-10-14T04:49:14.712Z,27.33
2022-10-14T04:51:41.352Z,28.35
2022-10-14T04:54:08.020Z,29.55
2022-10-14T04:56:34.830Z,33.78
2022-10-14T04:59:01.723Z,31.73
2022-10-14T05:01:33.667Z,30.30
2022-10-14T05:04:00.677Z,29.13
2022-10-14T05:06:27.813Z,32.10
2022-10-14T05:08:54.466Z,34.38
2022-10-14T05:11:21.140Z,31.00
2022-10-14T05:13:47.948Z,31.10
2022-10-14T05:16:14.621Z,31.45
2022-10-14T05:18:41.427Z,29.85
2022-10-14T05:21:08.071Z,33.05
2022-10-14T05:23:34.644Z,28.83
2022-10-14T05:26:01.333Z,31.73
2022-10-14T05:28:27.976Z,29.10
2022-10-14T05:30:55.453Z,31.02
2022-10-14T05:33:22.070Z,31.45
2022-10-14T05:36:03.884Z,29.80
2022-10-14T05:38:34.208Z,34.47
2022-10-14T05:41:01.494Z,34.00
2022-10-14T05:43:32.492Z,32.40
2022-10-14T05:46:00.173Z,33.55
2022-10-14T05:48:26.910Z,31.95
2022-10-14T05:50:53.524Z,32.97
2022-10-14T05:53:20.266Z,34.42
2022-10-14T05:55:46.999Z,32.40
2022-10-14T05:58:13.808Z,30.67
2022-10-14T06:00:40.705Z,34.83
2022-10-14T06:03:07.712Z,34.63
2022-10-14T06:05:37.235Z,33.55
2022-10-14T06:08:05.023Z,33.63
2022-10-14T06:10:31.705Z,36.03
2022-10-14T06:12:58.314Z,35.05
2022-10-14T06:15:25.052Z,35.03
2022-10-14T06:17:51.774Z,38.13
2022-10-14T06:20:18.342Z,37.55
2022-10-14T06:22:45.560Z,37.47
2022-10-14T06:25:12.235Z,42.30
2022-10-14T06:27:38.874Z,45.92
2022-10-14T06:30:05.994Z,42.75
2022-10-14T06:32:32.676Z,44.22
2022-10-14T06:34:59.379Z,44.65
2022-10-14T06:37:26.280Z,46.75
2022-10-14T06:39:52.959Z,49.17
2022-10-14T06:42:19.581Z,53.80
2022-10-14T06:44:46.190Z,53.75
2022-10-14T06:47:12.872Z,58.78
2022-10-14T06:49:39.958Z,54.45
2022-10-14T06:52:06.925Z,73.28
2022-10-14T06:54:38.911Z,58.83
2022-10-14T06:57:06.296Z,61.58
2022-10-14T06:59:32.908Z,55.05
2022-10-14T07:01:59.569Z,66.10
2022-10-14T07:04:26.315Z,64.63
2022-10-14T07:06:53.046Z,48.78
2022-10-14T07:09:19.642Z,54.58
2022-10-14T07:11:46.257Z,62.17
2022-10-14T07:14:12.820Z,58.15
2022-10-14T07:16:39.486Z,51.83
2022-10-14T07:19:06.098Z,55.72
2022-10-14T07:21:32.693Z,58.42
2022-10-14T07:23:59.414Z,55.80
2022-10-14T07:26:26.121Z,52.03
2022-10-14T07:28:52.821Z,51.33
2022-10-14T07:31:19.601Z,48.22
2022-10-14T07:33:46.276Z,49.55
2022-10-14T07:36:18.412Z,46.95
2022-10-14T07:38:48.386Z,49.60
2022-10-14T07:41:19.514Z,49.70
2022-10-14T07:43:52.297Z,49.80
2022-10-14T07:46:32.291Z,51.53
2022-10-14T07:49:02.241Z,53.20
2022-10-14T07:51:29.187Z,51.10
2022-10-14T07:53:58.307Z,51.92
2022-10-14T07:56:25.329Z,48.90
2022-10-14T07:58:52.616Z,51.03
2022-10-14T08:01:19.884Z,46.30
2022-10-14T08:03:47.838Z,47.10
2022-10-14T08:06:15.387Z,45.83
2022-10-14T08:08:42.407Z,42.63
2022-10-14T08:11:12.123Z,44.08
2022-10-14T08:16:17.010Z,40.30
2022-10-14T08:18:44.821Z,41.03
2022-10-14T08:21:12.306Z,41.38
2022-10-14T08:23:39.039Z,41.33
2022-10-14T08:26:22.583Z,42.80
2022-10-14T08:28:50.204Z,39.47
2022-10-14T08:31:17.434Z,42.50
2022-10-14T08:33:44.254Z,43.78
2022-10-14T08:36:11.305Z,45.53
2022-10-14T08:38:38.014Z,42.30
2022-10-14T08:41:13.502Z,45.30
2022-10-14T08:44:07.866Z,46.15
2022-10-14T08:46:41.472Z,48.42
2022-10-14T08:49:37.891Z,46.75
2022-10-14T08:52:18.757Z,48.65
2022-10-14T08:54:55.451Z,44.47
2022-10-14T08:57:26.504Z,46.13
2022-10-14T08:59:53.709Z,46.42
2022-10-14T09:02:44.316Z,49.15
2022-10-14T09:05:22.686Z,54.53
2022-10-14T09:07:52.373Z,48.75
2022-10-14T09:12:53.900Z,46.75
2022-10-14T09:15:32.811Z,42.27
2022-10-14T09:18:12.214Z,41.30
2022-10-14T09:20:41.235Z,46.30
2022-10-14T09:23:07.827Z,42.60
2022-10-14T09:25:36.495Z,47.95
2022-10-14T09:28:03.269Z,44.85
2022-10-14T09:30:36.342Z,44.03
2022-10-14T09:33:04.418Z,50.25
2022-10-14T09:35:39.587Z,50.92
2022-10-14T09:38:07.239Z,52.58
2022-10-14T09:40:45.107Z,54.95
2022-10-14T09:43:11.643Z,54.17
2022-10-14T09:45:53.558Z,51.97
2022-10-14T09:48:38.689Z,51.13
2022-10-14T09:51:06.401Z,52.20
2022-10-14T09:53:38.430Z,49.72
2022-10-14T09:56:07.753Z,51.05
2022-10-14T09:58:46.355Z,51.42
2022-10-14T10:01:27.966Z,51.53
2022-10-14T10:03:55.967Z,51.42
2022-10-14T10:06:27.097Z,50.80
2022-10-14T10:08:53.714Z,48.85
2022-10-14T10:11:37.532Z,45.08
2022-10-14T10:14:23.541Z,50.60
2022-10-14T10:17:06.066Z,49.33
2022-10-14T10:19:34.356Z,45.72
2022-10-14T10:24:47.790Z,43.47
2022-10-14T10:27:47.805Z,42.47
2022-10-14T10:30:17.447Z,38.60
2022-10-14T10:35:40.182Z,39.80
2022-10-14T10:38:11.124Z,39.50
2022-10-14T10:41:10.009Z,36.50
2022-10-14T10:43:53.577Z,37.97
2022-10-14T10:46:46.086Z,35.72
2022-10-14T10:49:34.490Z,34.40
2022-10-14T10:52:21.229Z,36.60
2022-10-14T10:55:03.053Z,34.30
2022-10-14T10:58:09.762Z,32.47
2022-10-14T11:00:56.954Z,34.33
2022-10-14T11:03:42.033Z,33.92
2022-10-14T11:06:41.463Z,34.45
2022-10-14T11:09:39.071Z,33.53
2022-10-14T11:12:39.383Z,34.03
2022-10-14T11:15:25.215Z,34.75
2022-10-14T11:18:09.099Z,36.95
2022-10-14T11:20:54.334Z,36.40
2022-10-14T11:23:39.395Z,34.05
2022-10-14T11:26:12.295Z,37.70
2022-10-14T11:29:18.739Z,36.30
2022-10-14T11:32:00.085Z,35.05
2022-10-14T11:34:35.445Z,32.65
2022-10-14T11:37:24.304Z,35.13
2022-10-14T11:40:03.468Z,37.22
2022-10-14T11:42:57.545Z,32.78
2022-10-14T11:45:41.641Z,33.97
2022-10-14T11:48:20.213Z,33.03
2022-10-14T11:50:49.365Z,31.77
2022-10-14T11:56:25.291Z,32.85
2022-10-14T11:58:55.707Z,33.75
2022-10-14T12:01:34.141Z,34.55
2022-10-14T12:04:14.688Z,32.60
2022-10-14T12:06:47.271Z,34.28
2022-10-14T12:09:30.978Z,34.15
2022-10-14T12:12:07.368Z,35.05
2022-10-14T12:14:36.066Z,35.75
2022-10-14T12:17:30.955Z,31.05
2022-10-14T12:20:02.210Z,31.00
2022-10-14T12:22:32.113Z,32.00
2022-10-14T12:25:05.217Z,34.58
2022-10-14T12:27:32.330Z,32.40
2022-10-14T12:29:59.092Z,31.85
2022-10-14T12:32:32.136Z,30.10
2022-10-14T12:35:01.258Z,31.65
2022-10-14T12:37:32.352Z,31.98
2022-10-14T12:40:02.554Z,32.50
2022-10-14T12:42:58.485Z,29.25
2022-10-14T12:45:28.780Z,29.92
2022-10-14T12:48:15.973Z,29.83
2022-10-14T12:50:47.940Z,33.10
2022-10-14T12:53:21.645Z,31.02
2022-10-14T12:55:52.183Z,30.10
2022-10-14T12:58:25.924Z,28.55
2022-10-14T13:01:00.321Z,29.05
2022-10-14T13:03:32.018Z,28.73
2022-10-14T13:06:31.288Z,31.40
2022-10-14T13:09:13.455Z,31.35
2022-10-14T13:11:41.899Z,30.55
2022-10-14T13:14:27.174Z,28.80
2022-10-14T13:16:55.059Z,26.80
2022-10-14T13:19:34.115Z,26.35
2022-10-14T13:22:27.318Z,28.67
2022-10-14T13:25:12.151Z,27.55
2022-10-14T13:27:55.547Z,29.48
2022-10-14T13:30:47.613Z,28.27
2022-10-14T13:33:25.111Z,24.98
2022-10-14T13:35:55.764Z,26.55
2022-10-14T13:38:24.250Z,26.17
2022-10-14T13:40:54.265Z,25.00
2022-10-14T13:43:42.317Z,26.27
2022-10-14T13:46:15.665Z,27.10
2022-10-14T13:48:48.501Z,27.45
2022-10-14T13:51:31.773Z,28.83
2022-10-14T13:54:28.594Z,26.55
2022-10-14T13:57:19.837Z,29.35
2022-10-14T14:02:33.778Z,23.42
2022-10-14T14:05:01.423Z,23.17
2022-10-14T14:07:59.637Z,26.38
2022-10-14T14:10:26.085Z,26.63
2022-10-14T14:12:53.201Z,25.25
2022-10-14T14:15:25.488Z,28.20
2022-10-14T14:17:52.842Z,26.23
2022-10-14T14:20:28.124Z,24.15
2022-10-14T14:22:58.411Z,24.65
2022-10-14T14:25:38.351Z,24.60
2022-10-14T14:28:14.379Z,26.63
2022-10-14T14:30:50.571Z,27.05
2022-10-14T14:33:35.138Z,30.17
2022-10-14T14:36:05.337Z,29.48
2022-10-14T14:38:37.475Z,31.52
2022-10-14T14:41:25.407Z,31.02
2022-10-14T14:44:07.656Z,28.05
2022-10-14T14:46:44.929Z,29.65
2022-10-14T14:49:17.687Z,25.55
2022-10-14T14:51:45.303Z,30.38
2022-10-14T14:54:18.830Z,30.98
2022-10-14T14:56:49.153Z,28.73
2022-10-14T14:59:36.289Z,27.52
2022-10-14T15:02:11.106Z,36.60
2022-10-14T15:04:37.859Z,32.63
2022-10-14T15:07:21.530Z,30.40
2022-10-14T15:09:52.241Z,28.77
2022-10-14T15:12:41.926Z,33.63
2022-10-14T15:18:13.915Z,36.70
2022-10-14T15:20:42.570Z,36.75
2022-10-14T15:23:45.962Z,38.65
2022-10-14T15:26:27.896Z,39.65
2022-10-14T15:32:05.979Z,42.47
2022-10-14T15:34:32.979Z,42.88
2022-10-14T15:36:59.609Z,43.13
2022-10-14T15:39:26.204Z,38.65
2022-10-14T15:41:52.835Z,44.55
2022-10-14T15:44:19.523Z,40.58
2022-10-14T15:47:05.031Z,40.50
2022-10-14T15:49:36.877Z,42.33
2022-10-14T15:52:03.573Z,42.15
2022-10-14T15:54:30.284Z,39.75
2022-10-14T15:56:57.811Z,41.22
2022-10-14T15:59:25.552Z,39.33
2022-10-14T16:01:52.815Z,38.92
2022-10-14T16:04:24.669Z,41.13
2022-10-14T16:06:56.521Z,37.75
2022-10-14T16:09:24.790Z,39.90
2022-10-14T16:11:57.309Z,40.08
2022-10-14T16:14:25.557Z,37.13
2022-10-14T16:16:52.660Z,36.70
2022-10-14T16:19:19.344Z,39.33
2022-10-14T16:21:46.305Z,37.83
2022-10-14T16:24:20.155Z,37.78
2022-10-14T16:26:51.269Z,39.20
2022-10-14T16:29:19.714Z,36.75
2022-10-14T16:31:49.240Z,37.13
2022-10-14T16:34:25.070Z,36.22
2022-10-14T16:36:51.710Z,40.03
2022-10-14T16:39:19.625Z,40.58
2022-10-14T16:41:46.531Z,38.58
2022-10-14T16:44:24.609Z,37.88
2022-10-14T16:47:15.354Z,39.15
2022-10-14T16:49:44.981Z,38.22
2022-10-14T16:52:11.797Z,37.22
2022-10-14T16:54:38.547Z,34.92
2022-10-14T16:57:06.262Z,39.58
2022-10-14T16:59:33.249Z,38.03
2022-10-14T17:02:00.622Z,38.40
2022-10-14T17:04:27.796Z,40.53
2022-10-14T17:06:54.912Z,36.38
2022-10-14T17:09:21.919Z,35.95
2022-10-14T17:11:49.947Z,39.60
2022-10-14T17:14:21.691Z,36.45
2022-10-14T17:16:52.157Z,40.75
2022-10-14T17:19:19.798Z,36.60
2022-10-14T17:21:47.231Z,39.03
2022-10-14T17:24:15.098Z,40.95
2022-10-14T17:26:41.674Z,68.45
2022-10-14T17:29:08.363Z,78.25
2022-10-14T17:31:37.765Z,51.15
2022-10-14T17:34:04.726Z,40.05
2022-10-14T17:36:31.404Z,44.65
2022-10-14T17:38:59.226Z,44.50
2022-10-14T17:41:28.142Z,43.10
2022-10-14T17:43:56.696Z,43.95
2022-10-14T17:46:25.608Z,44.40
2022-10-14T17:48:54.584Z,43.17
2022-10-14T17:51:24.422Z,42.88
2022-10-14T17:53:58.784Z,41.35
2022-10-14T17:56:27.425Z,45.40
2022-10-14T17:58:59.672Z,44.97
2022-10-14T18:01:37.214Z,41.55
2022-10-14T18:04:10.747Z,36.30
2022-10-14T18:06:37.594Z,33.78
2022-10-14T18:09:07.898Z,35.47
2022-10-14T18:12:07.115Z,34.97
2022-10-14T18:14:27.081Z,38.53
2022-10-14T18:16:53.775Z,32.53
2022-10-14T18:19:20.404Z,39.35
2022-10-14T18:21:47.979Z,33.65
2022-10-14T18:24:14.702Z,38.88
2022-10-14T18:26:41.537Z,38.90
2022-10-14T18:29:09.058Z,35.15
2022-10-14T18:31:37.028Z,48.63
2022-10-14T18:34:04.013Z,38.63
2022-10-14T18:36:33.165Z,87.35
2022-10-14T18:39:06.711Z,69.25
2022-10-14T18:41:34.518Z,44.42
2022-10-14T18:44:01.123Z,51.45
2022-10-14T18:46:32.549Z,49.47
2022-10-14T18:49:00.782Z,51.63
2022-10-14T18:51:29.949Z,57.10
2022-10-14T18:53:59.119Z,42.65
2022-10-14T18:56:31.602Z,41.90
2022-10-14T19:01:30.874Z,37.80
2022-10-14T19:03:58.051Z,38.83
2022-10-14T19:06:25.092Z,38.05
2022-10-14T19:08:52.005Z,36.78
2022-10-14T19:11:24.549Z,37.33
2022-10-14T19:13:53.732Z,34.25
2022-10-14T19:16:28.903Z,35.67
2022-10-14T19:18:56.642Z,35.22
2022-10-14T19:21:26.664Z,35.35
2022-10-14T19:23:53.317Z,33.58
2022-10-14T19:26:22.391Z,34.67
2022-10-14T19:28:50.089Z,32.97
2022-10-14T19:31:19.279Z,32.40
2022-10-14T19:33:47.031Z,123.78
2022-10-14T19:36:16.532Z,46.90
2022-10-14T19:38:51.125Z,26.63
2022-10-14T19:41:18.496Z,24.35
2022-10-14T19:43:45.143Z,26.77
2022-10-14T19:46:13.826Z,22.92
2022-10-14T19:48:40.808Z,21.73
2022-10-14T19:51:10.946Z,22.38
2022-10-14T19:53:38.774Z,22.60
2022-10-14T19:56:07.838Z,22.80
2022-10-14T19:58:34.814Z,23.27
2022-10-14T20:01:16.149Z,21.77
2022-10-14T20:03:43.558Z,24.23
2022-10-14T20:06:12.217Z,22.70
2022-10-14T20:08:39.588Z,21.75
2022-10-14T20:11:08.413Z,20.77
2022-10-14T20:13:37.485Z,21.70
2022-10-14T20:16:06.572Z,23.27
2022-10-14T20:18:33.956Z,25.00
2022-10-14T20:21:05.487Z,23.77
2022-10-14T20:23:36.429Z,22.23
2022-10-14T20:26:05.440Z,20.30
2022-10-14T20:28:34.521Z,20.27
2022-10-14T20:31:01.320Z,18.67
2022-10-14T20:33:30.775Z,21.13
2022-10-14T20:36:13.569Z,20.75
2022-10-14T20:38:41.027Z,16.88
2022-10-14T20:41:13.854Z,17.40
2022-10-14T20:43:41.945Z,17.30
2022-10-14T20:46:08.827Z,16.40
2022-10-14T20:48:37.280Z,16.50
2022-10-14T20:51:08.551Z,17.98
2022-10-14T20:53:35.338Z,14.85
2022-10-14T20:56:07.716Z,16.38
2022-10-14T20:58:34.818Z,14.85
2022-10-14T21:01:09.883Z,13.23
2022-10-14T21:03:37.743Z,15.38
2022-10-14T21:06:06.404Z,15.23
2022-10-14T21:08:33.462Z,12.50
2022-10-14T21:11:02.062Z,13.05
2022-10-14T21:13:29.608Z,13.18
2022-10-14T21:15:56.553Z,14.35
2022-10-14T21:18:23.895Z,12.07
2022-10-14T21:23:22.815Z,14.57
2022-10-14T21:25:57.155Z,11.40
2022-10-14T21:28:24.191Z,10.13
2022-10-14T21:30:50.966Z,10.88
2022-10-14T21:33:17.579Z,12.32
2022-10-14T21:35:44.191Z,8.93
2022-10-14T21:38:10.795Z,6.82
2022-10-14T21:40:37.412Z,7.70
2022-10-14T21:43:04.013Z,7.25
2022-10-14T21:45:30.642Z,8.50
2022-10-14T21:50:30.064Z,17.63
2022-10-14T21:52:56.622Z,11.55
2022-10-14T21:55:23.232Z,10.40
2022-10-14T21:57:51.341Z,9.10
2022-10-14T22:00:18.356Z,9.10
2022-10-14T22:02:44.929Z,8.38
2022-10-14T22:05:11.601Z,8.63
2022-10-14T22:07:38.278Z,8.18
2022-10-14T22:10:25.196Z,11.88
2022-10-14T22:12:51.826Z,14.50
2022-10-14T22:15:18.402Z,19.85
2022-10-14T22:17:45.105Z,7.32
2022-10-14T22:20:11.803Z,6.93
2022-10-14T22:22:38.482Z,5.95
2022-10-14T22:25:05.588Z,7.75
2022-10-14T22:27:32.216Z,6.05
2022-10-14T22:29:59.374Z,6.25
2022-10-14T22:32:26.051Z,7.35
2022-10-14T22:34:52.645Z,7.45
2022-10-14T22:37:20.112Z,6.78
2022-10-14T22:39:46.970Z,8.57
2022-10-14T22:42:13.632Z,7.68
2022-10-14T22:44:40.200Z,8.57
2022-10-14T22:47:06.918Z,6.85
2022-10-14T22:49:33.656Z,6.38
2022-10-14T22:52:00.238Z,5.20
2022-10-14T22:54:27.245Z,6.93
2022-10-14T22:56:53.887Z,6.47
2022-10-14T22:59:20.639Z,6.82
2022-10-14T23:01:47.288Z,6.78
2022-10-14T23:04:13.989Z,5.70
2022-10-14T23:06:43.619Z,7.85
2022-10-14T23:09:10.334Z,5.30
2022-10-14T23:11:37.026Z,6.78
2022-10-14T23:14:06.964Z,8.18
2022-10-14T23:16:34.631Z,7.68
2022-10-14T23:19:01.298Z,8.02
2022-10-14T23:21:30.219Z,8.18
2022-10-14T23:23:59.788Z,8.27
2022-10-14T23:26:31.384Z,6.75
2022-10-14T23:28:59.242Z,6.65
2022-10-14T23:31:29.284Z,6.10
2022-10-14T23:33:59.054Z,6.63
2022-10-14T23:38:52.680Z,6.25
2022-10-14T23:41:24.363Z,6.55
2022-10-14T23:43:52.054Z,6.00
2022-10-14T23:46:20.222Z,6.47
2022-10-14T23:48:55.403Z,6.38
2022-10-14T23:51:33.797Z,5.60
2022-10-14T23:54:00.391Z,5.05
2022-10-14T23:56:27.074Z,5.70
2022-10-14T23:58:53.639Z,5.10
